Strona główna
METAR-TAF:

METAR-TAF

Lotnisko :

Baza lotnicza

Tulln an der Donau, Austria

Szerokość geograficzna: 48-19N, Długość geograficzna: 016-07E, wysokość: 175 m

METAR: brakujący

czas: 09:25 (07:25 UTC)

Prognoza

Raport powstał 2 godziny i 10 minut temu, godzina 05:15 UTC
Prognoza ważna od 23 godzina 06 UTC do 23 godzina 15 UTC
Wiatr 10 kt od południowy wschód
Widzialność 10 km lub więcej
Mało chmury na wysokości 4000 ft
Rozproszone chmury na wysokości 30000 ft
Przejściowo
od 23 godzina 12 UTC do 23 godzina 15 UTC
Wiatr 15 kt od południowy wschód w porywach dochodzący do 25 kt
Mało chmury na wysokości 4500 ft, Cumulonimbus.
Rozproszone chmury na wysokości 4500 ft

TAF: LOXT 230515Z 2306/2315 13010KT 9999 FEW040 SCT300 TEMPO 2312/2315 14015G25KT FEW045CB SCT045

Obserwacja i prognoza pogody dla ponad 4000 lotnisk (raport METAR i TAF).

Dostępne stacje oznaczono żółtymi i czerwonymi punktami na mapie.

Najedź kursorem aby zobaczyć nazwę stacji.

Kliknij aby zobaczyć obserwacje i prognozy pogody.

Aby zmienić mapę: kliknij na zielony przycisk z czarnym krzyżykiem, aby powiększyć; na zielony przycisk z myślnikiem, aby pomniejszyć; na zielone strzałki, aby przejść do map sąsiednich.


METAR-TAF: